Time;durP1;ratioP1;P1;durP2;ratioP2;P2;SDS_P1;SDS_P2;PMS_P1;PMS_P2;Temp;Humidity;BMP_temperature;BMP_pressure;BME280_temperature;BME280_humidity;BME280_pressure;Samples;Min_cycle;Max_cycle;Signal;HPM_P1;HPM_P2
2023/12/22 00:02:18;;;;;;;17.02;10.18;;;;;;;1.15;70.21;97835.34;4962094;28;20037;-95
2023/12/22 00:04:43;;;;;;;16.60;10.38;;;;;;;1.21;69.68;97847.63;4947071;28;20094;-94
2023/12/22 00:07:09;;;;;;;18.90;10.88;;;;;;;1.18;69.91;97829.53;4962054;28;20031;-94
2023/12/22 00:09:34;;;;;;;18.52;10.15;;;;;;;1.30;69.70;97827.56;4945790;28;20033;-94
2023/12/22 00:12:00;;;;;;;9.25;6.07;;;;;;;1.41;69.47;97829.31;4946977;28;20099;-94
2023/12/22 00:14:25;;;;;;;10.40;5.00;;;;;;;1.68;70.14;97854.28;4961980;28;20030;-94
2023/12/22 00:16:51;;;;;;;8.70;4.60;;;;;;;1.53;69.44;97815.91;4945793;28;20500;-93
2023/12/22 00:19:16;;;;;;;6.13;4.18;;;;;;;1.69;68.64;97824.06;4944284;28;20023;-94
2023/12/22 00:21:42;;;;;;;13.43;6.10;;;;;;;1.79;68.77;97840.09;4962564;28;20042;-95
2023/12/22 00:24:07;;;;;;;10.65;6.78;;;;;;;1.77;68.88;97832.38;4961800;28;20026;-94
2023/12/22 00:26:33;;;;;;;14.13;7.90;;;;;;;1.61;69.58;97826.09;4961864;28;20041;-94
2023/12/22 00:28:58;;;;;;;18.60;10.82;;;;;;;1.56;69.54;97834.00;4945989;28;20389;-95
2023/12/22 00:31:24;;;;;;;20.05;11.45;;;;;;;1.53;69.23;97854.91;4961113;28;20117;-95
2023/12/22 00:33:49;;;;;;;26.23;11.98;;;;;;;1.39;69.75;97844.69;4946806;28;20096;-93
2023/12/22 00:36:15;;;;;;;24.02;12.13;;;;;;;1.08;69.49;97787.81;4945511;28;20069;-95
2023/12/22 00:38:41;;;;;;;22.50;10.90;;;;;;;1.29;69.65;97831.28;4961793;28;20390;-93
2023/12/22 00:41:06;;;;;;;19.05;11.02;;;;;;;1.08;69.49;97789.66;4962841;28;20085;-96
2023/12/22 00:43:32;;;;;;;20.77;11.30;;;;;;;1.26;70.03;97807.91;4961220;28;20059;-95
2023/12/22 00:45:57;;;;;;;22.55;11.88;;;;;;;1.16;70.76;97798.00;4960866;28;20552;-94
2023/12/22 00:48:23;;;;;;;20.88;11.30;;;;;;;1.00;71.00;97785.59;4944280;28;20524;-94
2023/12/22 00:50:49;;;;;;;17.63;10.48;;;;;;;1.07;70.94;97788.06;4962799;28;20035;-95
2023/12/22 00:53:14;;;;;;;20.33;11.50;;;;;;;0.91;70.67;97774.59;4945784;28;20085;-94
2023/12/22 00:55:40;;;;;;;17.90;10.77;;;;;;;0.83;71.65;97758.34;4961340;28;20067;-95
2023/12/22 00:58:08;;;;;;;25.38;12.90;;;;;;;1.08;71.13;97800.25;4960881;28;20469;-94
2023/12/22 01:00:36;;;;;;;19.92;10.95;;;;;;;1.01;70.82;97768.63;4947469;28;20051;-96
2023/12/22 01:03:02;;;;;;;24.80;12.15;;;;;;;0.99;71.02;97766.22;4945884;28;20043;-95
2023/12/22 01:05:28;;;;;;;20.23;11.20;;;;;;;0.98;70.89;97769.94;4945261;28;20037;-95
2023/12/22 01:07:53;;;;;;;21.30;10.73;;;;;;;1.06;70.72;97773.19;4977731;28;20030;-95
2023/12/22 01:10:19;;;;;;;15.93;10.25;;;;;;;0.95;70.40;97735.16;4961534;28;20429;-94
2023/12/22 01:12:45;;;;;;;18.27;10.25;;;;;;;0.94;70.22;97728.28;4961808;28;20035;-93
2023/12/22 01:15:10;;;;;;;15.75;10.30;;;;;;;0.83;70.39;97721.25;4961985;28;20026;-94
2023/12/22 01:17:36;;;;;;;19.00;10.00;;;;;;;0.72;70.29;97704.44;4960302;28;20058;-95
2023/12/22 01:20:02;;;;;;;16.20;9.40;;;;;;;0.98;70.36;97724.88;4961054;28;20269;-94
2023/12/22 01:22:27;;;;;;;19.80;10.38;;;;;;;0.91;70.36;97710.22;4945360;28;20123;-95
2023/12/22 01:24:53;;;;;;;18.55;10.82;;;;;;;0.94;70.48;97726.44;4960865;28;20093;-95
2023/12/22 01:27:19;;;;;;;18.40;10.35;;;;;;;0.88;70.57;97714.16;4960644;28;20034;-94
2023/12/22 01:29:45;;;;;;;17.08;10.50;;;;;;;1.02;70.52;97709.31;4961034;28;20034;-94
2023/12/22 01:32:10;;;;;;;15.35;9.40;;;;;;;1.06;69.89;97701.63;4961123;28;20026;-94
2023/12/22 01:34:36;;;;;;;15.82;10.18;;;;;;;1.09;70.47;97682.59;4945843;28;20113;-95
2023/12/22 01:37:01;;;;;;;19.00;9.35;;;;;;;1.08;70.73;97689.75;4960958;28;20532;-94
2023/12/22 01:39:27;;;;;;;17.48;9.60;;;;;;;1.09;70.66;97711.75;4960850;28;20023;-96
2023/12/22 01:41:52;;;;;;;16.02;9.40;;;;;;;1.06;70.75;97691.03;4944839;28;20027;-94
2023/12/22 01:44:18;;;;;;;16.58;9.75;;;;;;;1.00;70.92;97688.34;4960845;28;20125;-95
2023/12/22 01:46:45;;;;;;;17.73;9.50;;;;;;;0.93;70.35;97678.97;4960837;28;20090;-94
2023/12/22 01:49:10;;;;;;;19.92;9.60;;;;;;;0.92;70.57;97675.53;4945221;28;20046;-95
2023/12/22 01:51:36;;;;;;;12.43;8.48;;;;;;;0.96;69.72;97671.34;4945876;28;20035;-95
2023/12/22 01:54:02;;;;;;;15.80;9.32;;;;;;;0.91;69.51;97659.88;4961130;28;20054;-95
2023/12/22 01:56:27;;;;;;;16.83;9.10;;;;;;;0.91;69.75;97643.97;4943910;28;20113;-94
2023/12/22 01:58:54;;;;;;;15.65;8.45;;;;;;;1.09;69.89;97670.16;4960944;28;20027;-95
2023/12/22 02:01:20;;;;;;;14.32;9.43;;;;;;;0.88;70.28;97642.63;4960653;28;20054;-94
2023/12/22 02:03:52;;;;;;;14.23;8.88;;;;;;;1.13;69.84;97673.91;4945340;28;20035;-94
2023/12/22 02:06:19;;;;;;;17.17;9.40;;;;;;;1.12;69.98;97652.94;4945135;28;20448;-92
2023/12/22 02:08:47;;;;;;;16.27;9.18;;;;;;;1.12;70.32;97668.84;4960013;28;20030;-95
2023/12/22 02:11:14;;;;;;;18.33;9.70;;;;;;;0.99;70.25;97654.94;4961165;28;20031;-94
2023/12/22 02:13:40;;;;;;;14.63;9.07;;;;;;;1.06;70.48;97652.09;4960450;28;20042;-95
2023/12/22 02:16:20;;;;;;;14.60;8.98;;;;;;;0.71;70.91;97620.72;4945287;28;20552;-95
2023/12/22 02:18:47;;;;;;;17.48;9.68;;;;;;;0.84;70.37;97617.69;4962376;28;20048;-94
2023/12/22 02:21:12;;;;;;;16.40;9.38;;;;;;;0.84;70.58;97624.84;4945599;28;20054;-95
2023/12/22 02:23:38;;;;;;;16.40;9.07;;;;;;;0.70;70.23;97600.56;4944487;28;20030;-95
2023/12/22 02:26:09;;;;;;;13.77;8.02;;;;;;;0.77;69.98;97588.75;4948160;28;20069;-93
2023/12/22 02:28:34;;;;;;;15.07;9.32;;;;;;;0.89;70.19;97595.72;4964711;28;20474;-94
2023/12/22 02:31:03;;;;;;;15.10;8.50;;;;;;;0.83;70.38;97597.56;4965058;28;20066;-94
2023/12/22 02:33:29;;;;;;;14.18;8.02;;;;;;;0.59;71.08;97578.47;4964817;28;20027;-95
2023/12/22 02:36:03;;;;;;;13.20;7.88;;;;;;;0.60;71.48;97595.94;4948158;28;20073;-95
2023/12/22 02:38:28;;;;;;;11.23;7.97;;;;;;;0.68;70.75;97584.13;4964357;28;20042;-95
2023/12/22 02:40:55;;;;;;;22.63;15.63;;;;;;;0.59;71.75;97578.47;4948442;28;20066;-95
2023/12/22 02:43:20;;;;;;;14.35;8.63;;;;;;;0.53;72.00;97577.59;4963973;28;20062;-95
2023/12/22 02:45:50;;;;;;;14.57;8.25;;;;;;;0.72;71.38;97590.53;4949091;28;20135;-95
2023/12/22 02:48:16;;;;;;;13.48;8.00;;;;;;;0.57;71.20;97573.41;4965405;28;20027;-95
2023/12/22 02:50:41;;;;;;;15.52;8.38;;;;;;;0.55;71.65;97578.16;4947802;28;20035;-94
2023/12/22 02:53:07;;;;;;;13.25;8.10;;;;;;;0.74;70.95;97585.78;4964026;28;20038;-94
2023/12/22 02:55:33;;;;;;;14.00;8.07;;;;;;;0.60;71.38;97557.03;4947510;28;20485;-95
2023/12/22 02:57:59;;;;;;;13.55;8.40;;;;;;;0.68;71.15;97557.63;4949164;28;20046;-94
2023/12/22 03:00:24;;;;;;;14.85;9.15;;;;;;;0.71;71.28;97563.25;4948412;28;20182;-94
2023/12/22 03:02:50;;;;;;;14.00;7.30;;;;;;;0.95;71.46;97586.78;4947483;28;20031;-95
2023/12/22 03:05:15;;;;;;;16.30;9.18;;;;;;;0.87;71.59;97552.78;4964472;28;20078;-95
2023/12/22 03:07:41;;;;;;;18.25;8.65;;;;;;;0.84;71.17;97545.34;4963516;28;20078;-94
2023/12/22 03:10:10;;;;;;;18.13;9.35;;;;;;;0.97;70.96;97550.25;4947372;28;20031;-96
2023/12/22 03:12:35;;;;;;;11.98;7.57;;;;;;;0.77;71.29;97541.06;4963635;28;20034;-94
2023/12/22 03:15:01;;;;;;;15.40;8.60;;;;;;;0.89;71.77;97567.38;4948392;28;20446;-95
2023/12/22 03:17:26;;;;;;;20.35;8.35;;;;;;;0.92;70.96;97553.66;4946861;28;20034;-95
2023/12/22 03:19:52;;;;;;;18.80;8.30;;;;;;;1.06;70.95;97571.78;4948600;28;20042;-95
2023/12/22 03:22:17;;;;;;;13.05;7.50;;;;;;;0.85;70.84;97534.53;4947055;28;20405;-95
2023/12/22 03:24:44;;;;;;;11.40;7.47;;;;;;;0.92;70.99;97545.69;4964098;28;20030;-94
2023/12/22 03:27:09;;;;;;;13.65;8.32;;;;;;;0.85;71.13;97541.66;4962932;28;20014;-95
2023/12/22 03:29:35;;;;;;;18.27;8.68;;;;;;;1.13;71.35;97567.09;4962941;28;20031;-95
2023/12/22 03:32:00;;;;;;;17.30;7.85;;;;;;;0.91;71.48;97546.72;4963518;28;20023;-96
2023/12/22 03:34:28;;;;;;;12.20;7.85;;;;;;;0.77;71.00;97525.16;4947059;28;20035;-95
2023/12/22 03:36:54;;;;;;;13.93;7.75;;;;;;;0.97;71.51;97534.34;4947078;28;20031;-95
2023/12/22 03:39:22;;;;;;;20.30;8.75;;;;;;;0.92;70.96;97534.31;4963308;28;20035;-95
2023/12/22 03:41:50;;;;;;;12.05;7.13;;;;;;;0.86;71.02;97524.72;4963951;28;20425;-95
2023/12/22 03:44:16;;;;;;;13.75;8.68;;;;;;;0.90;71.25;97531.09;4962757;28;20059;-95
2023/12/22 03:46:42;;;;;;;13.45;7.40;;;;;;;1.14;70.79;97539.50;4947249;28;20057;-95
2023/12/22 03:49:07;;;;;;;14.65;7.25;;;;;;;1.05;71.19;97535.75;4946864;28;20027;-96
2023/12/22 03:51:33;;;;;;;11.70;7.55;;;;;;;0.96;70.92;97519.50;4947403;28;20038;-95
2023/12/22 03:53:59;;;;;;;17.23;8.70;;;;;;;1.11;70.91;97538.19;4946161;28;20085;-95
2023/12/22 03:56:24;;;;;;;14.13;7.85;;;;;;;1.28;71.24;97555.81;4946723;28;20030;-95
2023/12/22 03:58:50;;;;;;;15.88;8.40;;;;;;;1.11;70.40;97524.94;4946979;28;20030;-96
2023/12/22 04:01:15;;;;;;;17.17;8.60;;;;;;;1.14;70.70;97526.25;4963148;28;20473;-95
2023/12/22 04:03:41;;;;;;;16.08;8.48;;;;;;;1.17;70.92;97536.38;4962177;28;20031;-96
2023/12/22 04:06:06;;;;;;;15.48;8.63;;;;;;;1.03;70.49;97520.09;4946262;28;20477;-96
2023/12/22 04:08:32;;;;;;;13.57;8.48;;;;;;;1.15;70.72;97533.97;4946861;28;20073;-95
2023/12/22 04:10:57;;;;;;;16.42;8.77;;;;;;;1.21;70.19;97530.31;4962683;28;20086;-95
2023/12/22 04:13:23;;;;;;;21.98;9.20;;;;;;;1.48;70.54;97552.53;4946198;28;20026;-94
2023/12/22 04:15:49;;;;;;;12.13;6.60;;;;;;;1.34;70.24;97539.69;4979056;28;20034;-94
2023/12/22 04:18:14;;;;;;;18.80;8.95;;;;;;;1.44;70.31;97554.88;4946693;28;20050;-94
2023/12/22 04:20:40;;;;;;;14.32;9.13;;;;;;;1.31;70.15;97529.59;4946133;28;20046;-96
2023/12/22 04:23:05;;;;;;;16.50;8.65;;;;;;;1.36;70.49;97531.47;4946411;28;20018;-91
2023/12/22 04:25:31;;;;;;;17.65;11.02;;;;;;;1.35;70.31;97545.78;4942623;28;20066;-92
2023/12/22 04:27:57;;;;;;;17.58;8.48;;;;;;;1.41;70.35;97542.94;4964523;28;20092;-92
2023/12/22 04:30:22;;;;;;;17.70;8.30;;;;;;;1.47;69.75;97543.75;4959466;28;20406;-94
2023/12/22 04:32:48;;;;;;;16.50;9.43;;;;;;;1.51;70.48;97544.84;4944686;28;20484;-92
2023/12/22 04:35:14;;;;;;;17.10;7.82;;;;;;;1.42;70.27;97535.75;4970226;28;20025;-95
2023/12/22 04:37:39;;;;;;;19.23;9.63;;;;;;;1.39;70.41;97539.72;4952271;28;20022;-94
2023/12/22 04:40:05;;;;;;;14.40;8.95;;;;;;;1.40;70.94;97546.63;4953096;28;20026;-94
2023/12/22 04:42:31;;;;;;;15.23;9.10;;;;;;;1.46;70.47;97542.16;4968141;28;20051;-92
2023/12/22 04:44:57;;;;;;;20.58;9.52;;;;;;;1.53;69.94;97550.69;4964394;28;20039;-94
2023/12/22 04:47:23;;;;;;;16.70;10.15;;;;;;;1.51;70.14;97538.75;4949499;28;20026;-95
2023/12/22 04:49:48;;;;;;;19.83;10.43;;;;;;;1.53;70.01;97541.94;4948593;28;20058;-95
2023/12/22 04:52:14;;;;;;;21.60;10.95;;;;;;;1.50;70.93;97547.75;4978812;28;20544;-91
2023/12/22 04:54:39;;;;;;;34.90;13.45;;;;;;;1.37;70.56;97528.59;4977402;28;20035;-91
2023/12/22 04:57:05;;;;;;;27.48;12.85;;;;;;;1.35;69.97;97520.09;4944202;28;20062;-91
2023/12/22 04:59:33;;;;;;;24.42;13.95;;;;;;;1.49;70.66;97556.75;4941396;29;20031;-94
2023/12/22 05:01:58;;;;;;;26.58;13.43;;;;;;;1.39;70.79;97523.81;4945064;29;20031;-95
2023/12/22 05:04:24;;;;;;;23.00;12.02;;;;;;;1.38;70.28;97519.56;4944431;29;20038;-94
2023/12/22 05:06:50;;;;;;;25.15;13.43;;;;;;;1.61;70.48;97552.06;4928806;29;20122;-95
2023/12/22 05:09:16;;;;;;;27.02;14.25;;;;;;;1.60;70.23;97539.88;4943607;29;20030;-94
2023/12/22 05:11:44;;;;;;;35.85;15.30;;;;;;;1.55;70.00;97529.22;4946903;28;20023;-96
2023/12/22 05:14:11;;;;;;;34.45;14.38;;;;;;;1.46;69.89;97506.91;4928650;29;20035;-96
2023/12/22 05:16:39;;;;;;;25.10;14.35;;;;;;;1.45;70.03;97502.63;4943929;28;20097;-95
2023/12/22 05:19:04;;;;;;;23.92;14.13;;;;;;;1.49;70.19;97520.41;4944711;29;20506;-95
2023/12/22 05:21:34;;;;;;;28.63;14.63;;;;;;;1.58;69.11;97524.22;4944493;29;20097;-95
2023/12/22 05:24:06;;;;;;;31.45;15.32;;;;;;;1.45;70.22;97507.94;4930533;29;20126;-96
2023/12/22 05:26:31;;;;;;;28.98;14.50;;;;;;;1.65;69.84;97533.78;4945542;29;20054;-94
2023/12/22 05:28:57;;;;;;;25.98;13.27;;;;;;;1.72;70.03;97542.31;4944618;28;20026;-96
2023/12/22 05:31:23;;;;;;;30.05;15.20;;;;;;;1.74;70.09;97525.13;4947253;28;20038;-94
2023/12/22 05:33:48;;;;;;;35.08;14.77;;;;;;;1.96;69.38;97556.00;4945823;28;20031;-94
2023/12/22 05:36:17;;;;;;;27.98;16.13;;;;;;;1.91;69.48;97548.00;4945146;28;20488;-95
2023/12/22 05:38:42;;;;;;;52.92;17.80;;;;;;;1.98;69.64;97544.06;4945148;29;20035;-95
2023/12/22 05:41:23;;;;;;;36.28;16.33;;;;;;;2.19;68.90;97550.25;4943139;28;20042;-94
2023/12/22 05:43:49;;;;;;;29.13;15.32;;;;;;;1.93;69.40;97514.84;4960785;29;20114;-92
2023/12/22 05:46:17;;;;;;;27.80;13.98;;;;;;;2.23;69.16;97555.88;4961094;28;20086;-93
2023/12/22 05:48:43;;;;;;;33.20;15.57;;;;;;;2.14;69.16;97534.31;4956505;28;20046;-94
2023/12/22 05:51:13;;;;;;;32.95;17.13;;;;;;;2.25;69.14;97531.72;4968924;28;20066;-90
2023/12/22 05:53:48;;;;;;;39.75;22.15;;;;;;;2.33;69.28;97541.84;4984080;28;20429;-95
2023/12/22 05:56:18;;;;;;;32.15;16.60;;;;;;;2.20;69.51;97546.56;4962022;28;20098;-93
2023/12/22 05:58:45;;;;;;;30.75;18.55;;;;;;;2.17;69.23;97525.03;4961751;28;20042;-94
2023/12/22 06:01:19;;;;;;;44.78;21.23;;;;;;;1.86;70.01;97510.84;4984526;28;20038;-95
2023/12/22 06:03:46;;;;;;;39.50;18.65;;;;;;;2.15;69.42;97551.84;4951863;28;20434;-95
2023/12/22 06:06:21;;;;;;;34.17;19.55;;;;;;;2.06;69.78;97526.06;4969435;28;20034;-94
2023/12/22 06:08:49;;;;;;;41.95;19.75;;;;;;;2.18;69.48;97516.03;4974689;28;20030;-93
2023/12/22 06:11:15;;;;;;;37.72;19.10;;;;;;;2.40;69.45;97532.53;4981017;28;20085;-92
2023/12/22 06:13:41;;;;;;;32.65;18.50;;;;;;;2.52;69.24;97516.38;4964963;28;20110;-93
2023/12/22 06:16:14;;;;;;;32.03;18.42;;;;;;;2.56;69.32;97520.13;4966120;28;20496;-93
2023/12/22 06:18:43;;;;;;;37.13;19.13;;;;;;;2.70;69.12;97523.09;4961477;29;20031;-92
2023/12/22 06:21:09;;;;;;;40.13;18.45;;;;;;;2.78;69.85;97530.53;4947147;29;20030;-94
2023/12/22 06:23:42;;;;;;;42.63;20.55;;;;;;;2.77;69.93;97528.94;4963477;28;20035;-93
2023/12/22 06:26:11;;;;;;;36.08;20.27;;;;;;;2.77;69.64;97520.16;4962506;29;20473;-94
2023/12/22 06:28:38;;;;;;;49.15;22.20;;;;;;;2.91;70.22;97523.91;4962839;28;20382;-93
2023/12/22 06:31:04;;;;;;;44.28;21.60;;;;;;;3.02;69.96;97519.41;4950155;28;20046;-93
2023/12/22 06:33:34;;;;;;;46.13;20.17;;;;;;;3.20;69.17;97540.16;4944640;29;20027;-93
2023/12/22 06:36:00;;;;;;;41.00;21.25;;;;;;;3.06;69.57;97507.16;4963167;28;20027;-93
2023/12/22 06:38:27;;;;;;;33.22;18.38;;;;;;;3.01;69.04;97526.56;4945122;29;20031;-94
2023/12/22 06:40:55;;;;;;;33.00;18.50;;;;;;;3.13;68.72;97499.72;4977103;28;20094;-93
2023/12/22 06:43:21;;;;;;;32.72;19.60;;;;;;;3.06;70.21;97514.34;4929906;29;20486;-95
2023/12/22 06:45:47;;;;;;;37.83;19.13;;;;;;;3.16;70.03;97509.81;4945813;28;20035;-94
2023/12/22 06:48:13;;;;;;;44.80;22.23;;;;;;;3.07;69.55;97471.53;4963267;28;20037;-92
2023/12/22 06:50:39;;;;;;;36.92;20.17;;;;;;;3.44;68.59;97515.66;4949115;29;20034;-94
2023/12/22 06:53:05;;;;;;;35.10;21.20;;;;;;;3.31;68.93;97471.78;4932333;29;20027;-93
2023/12/22 06:55:33;;;;;;;48.72;26.67;;;;;;;3.53;68.92;97474.16;4946255;28;20174;-94
2023/12/22 06:58:06;;;;;;;37.33;22.67;;;;;;;3.70;68.94;97503.13;4948374;29;20027;-94
2023/12/22 07:00:37;;;;;;;40.95;22.75;;;;;;;3.53;69.17;97481.31;4946851;28;20035;-94
2023/12/22 07:03:07;;;;;;;38.70;19.33;;;;;;;3.39;69.29;97481.09;4946817;29;20126;-92
2023/12/22 07:05:35;;;;;;;89.43;50.13;;;;;;;3.41;69.46;97482.41;4963662;28;20027;-93
2023/12/22 07:08:14;;;;;;;48.70;24.67;;;;;;;3.50;68.90;97487.19;4948797;29;20019;-94
2023/12/22 07:10:45;;;;;;;35.58;21.33;;;;;;;3.58;69.55;97511.38;4964274;28;20126;-94
2023/12/22 07:13:19;;;;;;;38.15;21.98;;;;;;;3.67;69.04;97485.00;4933516;29;20039;-93
2023/12/22 07:15:45;;;;;;;36.92;20.75;;;;;;;3.92;68.60;97505.47;4930554;29;20082;-93
2023/12/22 07:18:13;;;;;;;34.88;21.05;;;;;;;4.03;68.98;97490.25;4959705;28;20086;-92
2023/12/22 07:20:39;;;;;;;31.77;19.75;;;;;;;4.11;68.00;97484.34;4939631;28;20030;-93
2023/12/22 07:23:05;;;;;;;32.60;18.83;;;;;;;4.16;67.79;97472.88;4964660;28;20061;-92
2023/12/22 07:25:36;;;;;;;31.95;18.90;;;;;;;4.47;67.40;97486.03;4963798;28;20031;-92
2023/12/22 07:28:01;;;;;;;33.90;19.15;;;;;;;4.66;66.49;97509.09;4976716;28;20035;-93
2023/12/22 07:30:29;;;;;;;35.72;21.98;;;;;;;4.56;65.95;97482.50;4928763;29;20038;-94
2023/12/22 07:32:55;;;;;;;38.22;23.05;;;;;;;4.74;66.21;97486.41;4947243;29;20015;-94
2023/12/22 07:35:21;;;;;;;59.80;35.72;;;;;;;4.82;66.11;97485.03;4945989;28;20023;-93
2023/12/22 07:37:53;;;;;;;47.03;29.02;;;;;;;4.81;66.15;97491.41;4961800;28;20011;-95
2023/12/22 07:40:31;;;;;;;38.80;22.27;;;;;;;4.75;67.91;97522.66;4947010;29;20126;-95
2023/12/22 07:43:03;;;;;;;40.10;22.35;;;;;;;4.74;67.81;97522.94;4946404;28;20086;-94
2023/12/22 07:45:29;;;;;;;39.17;21.48;;;;;;;4.82;67.73;97536.47;4945207;28;20521;-93
2023/12/22 07:47:57;;;;;;;41.65;22.48;;;;;;;4.78;66.38;97506.09;4946683;29;20088;-95
2023/12/22 07:50:25;;;;;;;33.13;19.33;;;;;;;4.89;63.91;97495.38;4954741;28;20049;-93
2023/12/22 07:52:51;;;;;;;34.15;19.98;;;;;;;5.15;63.65;97504.78;4960678;29;20109;-93
2023/12/22 07:55:19;;;;;;;44.38;26.35;;;;;;;5.32;64.55;97522.25;4935648;29;20058;-91
2023/12/22 07:58:13;;;;;;;40.33;22.70;;;;;;;5.41;64.55;97512.56;4944710;29;20032;-94
2023/12/22 08:00:39;;;;;;;37.78;24.63;;;;;;;5.60;63.75;97524.16;4948345;28;20046;-94
2023/12/22 08:03:05;;;;;;;28.67;16.45;;;;;;;5.62;63.48;97505.97;4948918;28;20031;-94
2023/12/22 08:05:31;;;;;;;26.70;16.20;;;;;;;5.62;62.56;97492.63;4947044;28;20098;-95
2023/12/22 08:07:57;;;;;;;36.15;21.20;;;;;;;5.81;64.67;97523.91;4960899;28;20118;-94
2023/12/22 08:10:30;;;;;;;36.38;24.02;;;;;;;5.95;64.63;97526.75;4949684;28;20088;-94
2023/12/22 08:13:01;;;;;;;43.55;23.23;;;;;;;6.01;64.11;97531.75;4946435;28;20026;-90
2023/12/22 08:15:32;;;;;;;45.97;23.55;;;;;;;6.04;63.98;97528.53;4944955;29;20059;-91
2023/12/22 08:17:57;;;;;;;43.05;25.25;;;;;;;5.86;64.01;97505.97;4943316;28;20621;-91
2023/12/22 08:20:25;;;;;;;50.83;25.75;;;;;;;5.88;63.95;97513.72;4941001;28;20034;-92
2023/12/22 08:22:55;;;;;;;48.30;25.50;;;;;;;5.75;63.96;97514.38;4964017;28;20031;-92
2023/12/22 08:25:32;;;;;;;55.70;27.23;;;;;;;5.83;64.19;97527.91;4953854;28;20031;-92
2023/12/22 08:28:04;;;;;;;50.90;30.95;;;;;;;5.54;64.19;97492.41;4970357;28;20106;-95
2023/12/22 08:30:35;;;;;;;53.10;29.40;;;;;;;5.66;64.35;97511.53;4971168;28;20058;-94
2023/12/22 08:33:15;;;;;;;51.45;29.65;;;;;;;5.73;63.97;97509.34;4971512;28;20042;-94
2023/12/22 08:36:02;;;;;;;53.47;29.23;;;;;;;5.78;64.55;97503.94;4950426;28;20074;-94
2023/12/22 08:38:28;;;;;;;55.15;28.38;;;;;;;5.95;64.50;97530.22;4983381;28;20039;-94
2023/12/22 08:40:54;;;;;;;52.33;30.40;;;;;;;5.76;64.67;97506.09;4968874;28;20038;-93
2023/12/22 08:43:22;;;;;;;48.78;29.50;;;;;;;5.95;64.54;97514.19;4948433;28;20069;-93
2023/12/22 08:45:50;;;;;;;57.35;30.10;;;;;;;6.03;64.60;97513.56;4951915;28;20025;-94
2023/12/22 08:48:19;;;;;;;61.05;31.05;;;;;;;5.97;64.92;97488.00;4955519;28;20019;-91
2023/12/22 08:50:50;;;;;;;81.30;36.35;;;;;;;5.96;66.55;97515.00;4938692;28;20050;-92
2023/12/22 08:53:33;;;;;;;55.50;33.40;;;;;;;6.19;65.19;97530.22;4950009;28;20026;-94
2023/12/22 08:56:12;;;;;;;47.30;29.67;;;;;;;6.36;64.47;97531.63;4951746;28;20453;-92
2023/12/22 08:58:42;;;;;;;51.17;30.02;;;;;;;6.08;64.73;97496.69;4962301;28;20062;-93
2023/12/22 09:01:08;;;;;;;54.70;31.13;;;;;;;6.04;64.92;97483.13;4950174;28;20043;-93
2023/12/22 09:03:44;;;;;;;60.15;34.42;;;;;;;5.97;64.83;97487.19;4937056;28;20026;-92
2023/12/22 09:06:20;;;;;;;64.53;31.52;;;;;;;5.95;65.32;97500.03;4935945;29;20031;-92
2023/12/22 09:08:52;;;;;;;51.20;30.88;;;;;;;6.14;64.60;97492.06;4936263;28;20038;-93
2023/12/22 09:11:28;;;;;;;59.47;32.33;;;;;;;6.36;64.59;97494.22;4949334;28;20390;-93
2023/12/22 09:14:13;;;;;;;44.85;29.45;;;;;;;6.49;64.03;97488.16;4950597;28;20034;-95
2023/12/22 09:16:39;;;;;;;59.35;30.50;;;;;;;6.63;63.96;97485.56;4937520;28;20034;-90
2023/12/22 09:19:15;;;;;;;60.92;34.05;;;;;;;6.45;63.90;97484.47;4933682;28;20031;-94
2023/12/22 09:21:44;;;;;;;65.00;35.20;;;;;;;6.78;63.02;97489.91;4951746;28;20023;-93
2023/12/22 09:24:20;;;;;;;62.20;37.10;;;;;;;7.03;63.26;97497.53;4937077;28;20444;-94
2023/12/22 09:26:46;;;;;;;63.08;35.33;;;;;;;6.87;63.30;97462.19;4957238;28;20552;-95
2023/12/22 09:29:42;;;;;;;63.15;35.22;;;;;;;6.96;63.08;97469.56;4953135;28;20030;-95
2023/12/22 09:32:10;;;;;;;58.80;35.22;;;;;;;7.16;62.63;97466.56;4958159;28;20023;-94
2023/12/22 09:34:45;;;;;;;63.42;34.17;;;;;;;7.15;62.66;97474.88;4948005;28;20018;-90
2023/12/22 09:37:14;;;;;;;77.30;36.33;;;;;;;7.05;63.03;97473.94;4932606;28;20043;-94
2023/12/22 09:39:46;;;;;;;60.15;32.03;;;;;;;7.24;62.68;97487.31;4933641;28;20031;-93
2023/12/22 09:42:42;;;;;;;71.55;37.58;;;;;;;7.34;62.43;97480.97;4953420;28;20131;-94
2023/12/22 09:45:32;;;;;;;75.43;37.42;;;;;;;7.23;62.19;97447.44;4950228;28;20066;-94
2023/12/22 09:47:59;;;;;;;70.30;39.45;;;;;;;7.32;62.45;97461.75;4948707;28;20023;-92
2023/12/22 09:50:31;;;;;;;75.30;38.75;;;;;;;7.44;62.37;97459.38;4946934;28;20478;-89
2023/12/22 09:52:56;;;;;;;76.05;41.70;;;;;;;7.55;61.94;97460.00;4960861;28;20031;-91
2023/12/22 09:55:25;;;;;;;66.15;40.38;;;;;;;7.46;61.93;97435.78;4948963;28;20105;-90
2023/12/22 09:57:51;;;;;;;64.30;38.85;;;;;;;7.36;61.84;97443.22;4947498;28;20041;-90
2023/12/22 10:00:27;;;;;;;65.53;38.08;;;;;;;7.43;61.78;97454.34;4932764;28;20035;-91
2023/12/22 10:02:53;;;;;;;72.28;38.60;;;;;;;7.27;62.52;97441.22;4950844;28;20077;-95
2023/12/22 10:05:30;;;;;;;64.40;38.53;;;;;;;7.39;62.14;97459.50;4949210;28;20035;-95
2023/12/22 10:08:06;;;;;;;72.70;36.78;;;;;;;7.19;61.78;97435.75;4947997;28;20050;-95
2023/12/22 10:10:53;;;;;;;76.43;37.28;;;;;;;7.31;61.25;97462.84;4934546;28;20464;-93
2023/12/22 10:13:27;;;;;;;93.70;41.10;;;;;;;7.03;61.70;97432.53;4947209;29;20031;-96
2023/12/22 10:15:54;;;;;;;70.57;36.45;;;;;;;7.07;61.61;97417.47;4933554;28;20046;-94
2023/12/22 10:18:23;;;;;;;120.75;44.00;;;;;;;7.13;61.61;97437.69;4951320;28;20031;-92
2023/12/22 10:20:49;;;;;;;48.97;26.75;;;;;;;7.36;61.61;97443.22;4933444;28;20027;-94
2023/12/22 10:27:21;;;;;;;;;;;;;;;;;;;;;
2023/12/22 10:30:07;;;;;;;17.55;8.77;;;;;;;7.86;62.36;97437.97;4874148;29;20079;-94
2023/12/22 10:33:06;;;;;;;7.95;4.80;;;;;;;8.46;61.53;97448.56;4959207;28;20094;-94
2023/12/22 10:39:48;;;;;;;8.05;5.13;;;;;;;9.28;60.11;97435.13;4969797;28;20094;-96
2023/12/22 10:42:55;;;;;;;14.43;5.90;;;;;;;9.37;60.70;97411.78;4954907;28;20039;-94
2023/12/22 10:45:30;;;;;;;7.47;5.43;;;;;;;9.57;60.73;97407.75;4949968;28;20042;-96
2023/12/22 10:48:39;;;;;;;26.42;11.65;;;;;;;9.52;60.49;97418.63;4951883;28;20034;-93
2023/12/22 10:51:11;;;;;;;8.55;5.45;;;;;;;9.62;59.45;97404.91;4971603;28;20512;-94
2023/12/22 10:53:43;;;;;;;6.32;3.38;;;;;;;9.76;58.09;97410.19;4952052;28;20511;-94
2023/12/22 10:56:20;;;;;;;5.35;3.17;;;;;;;9.97;58.13;97433.81;4950740;28;20043;-93
2023/12/22 10:58:58;;;;;;;7.45;3.97;;;;;;;9.77;58.83;97392.94;4952393;28;20034;-96
2023/12/22 11:01:29;;;;;;;6.25;3.78;;;;;;;9.96;58.92;97410.72;4948916;28;20046;-95
2023/12/22 11:03:55;;;;;;;7.50;5.68;;;;;;;9.95;58.48;97401.09;4951003;28;20153;-96
2023/12/22 11:06:26;;;;;;;7.10;3.80;;;;;;;9.85;58.84;97386.81;4937293;28;20042;-93
2023/12/22 11:09:13;;;;;;;3.45;2.38;;;;;;;10.05;57.94;97398.88;4947868;28;20129;-93
2023/12/22 11:11:43;;;;;;;4.95;2.70;;;;;;;10.07;57.80;97401.25;4952090;28;20031;-95
2023/12/22 11:14:11;;;;;;;3.47;2.17;;;;;;;10.16;56.38;97406.66;4951526;28;20074;-94
2023/12/22 11:16:49;;;;;;;7.03;3.72;;;;;;;10.23;56.97;97413.16;4951208;28;20038;-95
2023/12/22 11:19:15;;;;;;;8.57;2.88;;;;;;;10.45;56.81;97416.84;4954296;28;20007;-95
2023/12/22 11:21:40;;;;;;;4.93;2.90;;;;;;;10.36;56.27;97376.50;4953854;28;20126;-94
2023/12/22 11:24:07;;;;;;;5.43;3.20;;;;;;;10.60;56.34;97388.66;4939390;28;20026;-94
2023/12/22 11:26:42;;;;;;;15.20;9.57;;;;;;;10.50;55.71;97362.88;4958713;28;20085;-94
2023/12/22 11:29:08;;;;;;;13.85;8.13;;;;;;;10.80;55.82;97381.84;4969572;28;20023;-93
2023/12/22 11:31:33;;;;;;;11.10;6.63;;;;;;;10.81;54.46;97367.28;4951050;28;20460;-95
2023/12/22 11:34:03;;;;;;;8.82;4.63;;;;;;;10.91;54.67;97348.09;4950982;28;20086;-96
2023/12/22 11:36:32;;;;;;;11.45;4.10;;;;;;;11.02;54.34;97348.53;4959459;28;20093;-95
2023/12/22 11:42:28;;;;;;;7.72;3.53;;;;;;;11.27;53.31;97365.75;4965827;28;20105;-93
2023/12/22 11:44:54;;;;;;;7.13;3.25;;;;;;;11.42;53.10;97354.44;4954378;28;20043;-93
2023/12/22 11:51:26;;;;;;;4.75;2.97;;;;;;;11.72;52.79;97381.41;4890580;29;20039;-96
2023/12/22 11:53:59;;;;;;;13.13;3.90;;;;;;;11.71;52.92;97369.06;4888691;29;20089;-94